Terminal Aerodrome Forecast
Issued by NWS

Home | Current Version | Previous Version | Text Only | Print | Product List | Glossary On
Versions: 1 2 3 4 5 6 7 8 9 10 11 12 13 14 15 16 17 18 19 20 21 22 23 24 25 26 27
029
FTUS43 KDLH 262054 AAA
TAFHIB
TAF AMD
KHIB 262054Z 2621/2718 25010KT P6SM SCT025 SCT050
     FM270300 VRB03KT 5SM BR SCT010 SCT100
      TEMPO 2709/2712 3/4SM BR BKN003
     FM271600 15010KT P6SM VCSH SCT015 OVC100=

USA.gov is the U.S. government's official web portal to all federal, state and local government web resources and services.